createdAt,value
2023-02-24T00:00:31.931Z,101229.66
2023-02-24T00:03:05.639Z,101233.73
2023-02-24T00:05:34.533Z,101226.50
2023-02-24T00:08:01.802Z,101224.32
2023-02-24T00:10:29.517Z,101224.41
2023-02-24T00:12:56.407Z,101218.59
2023-02-24T00:15:24.644Z,101217.99
2023-02-24T00:17:51.835Z,101215.91
2023-02-24T00:20:18.719Z,101214.02
2023-02-24T00:22:45.950Z,101212.57
2023-02-24T00:25:14.035Z,101216.66
2023-02-24T00:27:42.038Z,101211.77
2023-02-24T00:30:11.386Z,101216.11
2023-02-24T00:32:39.952Z,101220.96
2023-02-24T00:35:08.290Z,101222.34
2023-02-24T00:37:35.506Z,101213.27
2023-02-24T00:40:10.514Z,101209.39
2023-02-24T00:42:42.054Z,101207.63
2023-02-24T00:45:09.810Z,101210.89
2023-02-24T00:47:41.510Z,101218.33
2023-02-24T00:50:09.132Z,101219.78
2023-02-24T00:52:36.412Z,101216.36
2023-02-24T00:55:13.450Z,101217.63
2023-02-24T00:57:40.846Z,101212.99
2023-02-24T01:00:16.044Z,101211.38
2023-02-24T01:02:47.388Z,101208.21
2023-02-24T01:05:17.187Z,101206.67
2023-02-24T01:07:45.470Z,101198.22
2023-02-24T01:10:12.417Z,101187.83
2023-02-24T01:12:49.118Z,101192.13
2023-02-24T01:15:18.967Z,101195.18
2023-02-24T01:17:49.333Z,101200.44
2023-02-24T01:20:19.928Z,101198.58
2023-02-24T01:22:52.747Z,101188.83
2023-02-24T01:25:21.865Z,101185.52
2023-02-24T01:27:48.857Z,101190.69
2023-02-24T01:30:17.594Z,101186.13
2023-02-24T01:32:46.734Z,101185.89
2023-02-24T01:35:15.242Z,101184.81
2023-02-24T01:37:43.178Z,101190.71
2023-02-24T01:40:18.065Z,101187.11
2023-02-24T01:42:47.199Z,101182.25
2023-02-24T01:45:29.126Z,101180.52
2023-02-24T01:48:00.780Z,101182.38
2023-02-24T01:50:28.820Z,101187.16
2023-02-24T01:53:00.280Z,101179.16
2023-02-24T01:55:36.236Z,101182.80
2023-02-24T01:58:10.846Z,101181.81
2023-02-24T02:00:45.141Z,101186.90
2023-02-24T02:03:19.062Z,101174.94
2023-02-24T02:05:48.047Z,101172.70
2023-02-24T02:08:18.067Z,101176.70
2023-02-24T02:10:46.578Z,101164.07
2023-02-24T02:13:21.311Z,101154.60
2023-02-24T02:15:59.020Z,101156.02
2023-02-24T02:18:42.500Z,101161.88
2023-02-24T02:22:03.502Z,101168.27
2023-02-24T02:24:51.052Z,101163.74
2023-02-24T02:27:37.932Z,101170.58
2023-02-24T02:30:37.907Z,101169.04
2023-02-24T02:33:27.197Z,101173.45
2023-02-24T02:36:21.769Z,101169.14
2023-02-24T02:39:11.565Z,101168.90
2023-02-24T02:41:49.393Z,101170.95
2023-02-24T02:44:23.455Z,101176.86
2023-02-24T02:47:04.883Z,101177.92
2023-02-24T02:49:38.124Z,101176.00
2023-02-24T02:52:15.034Z,101180.80
2023-02-24T02:55:00.636Z,101181.39
2023-02-24T02:57:31.571Z,101176.77
2023-02-24T03:00:14.739Z,101174.46
2023-02-24T03:02:49.169Z,101162.80
2023-02-24T03:05:21.241Z,101160.65
2023-02-24T03:07:56.406Z,101154.20
2023-02-24T03:10:27.258Z,101147.41
2023-02-24T03:12:58.287Z,101151.58
2023-02-24T03:15:30.413Z,101146.84
2023-02-24T03:18:09.658Z,101141.11
2023-02-24T03:20:46.700Z,101143.10
2023-02-24T03:23:26.752Z,101156.14
2023-02-24T03:26:05.484Z,101153.07
2023-02-24T03:29:07.179Z,101145.47
2023-02-24T03:32:17.082Z,101144.27
2023-02-24T03:34:59.105Z,101150.89
2023-02-24T03:37:29.530Z,101148.52
2023-02-24T03:39:59.149Z,101140.86
2023-02-24T03:42:33.231Z,101136.30
2023-02-24T03:45:01.428Z,101140.27
2023-02-24T03:47:29.802Z,101125.86
2023-02-24T03:49:57.104Z,101132.12
2023-02-24T03:52:40.477Z,101129.83
2023-02-24T03:55:34.634Z,101129.40
2023-02-24T03:58:27.863Z,101118.46
2023-02-24T04:01:18.205Z,101125.65
2023-02-24T04:03:57.118Z,101124.86
2023-02-24T04:06:59.867Z,101118.16
2023-02-24T04:09:34.209Z,101118.21
2023-02-24T04:12:15.308Z,101123.42
2023-02-24T04:14:45.380Z,101120.52
2023-02-24T04:17:18.756Z,101121.73
2023-02-24T04:19:49.231Z,101130.73
2023-02-24T04:22:23.129Z,101130.02
2023-02-24T04:24:56.089Z,101134.84
2023-02-24T04:27:24.789Z,101130.58
2023-02-24T04:29:55.972Z,101122.55
2023-02-24T04:32:26.924Z,101121.27
2023-02-24T04:35:11.671Z,101116.33
2023-02-24T04:37:43.995Z,101108.25
2023-02-24T04:40:17.158Z,101107.13
2023-02-24T04:42:48.519Z,101106.84
2023-02-24T04:45:22.745Z,101111.27
2023-02-24T04:47:55.634Z,101112.06
2023-02-24T04:50:25.320Z,101116.00
2023-02-24T04:52:55.510Z,101112.48
2023-02-24T04:55:26.069Z,101116.60
2023-02-24T04:57:53.527Z,101119.85
2023-02-24T05:00:22.498Z,101124.25
2023-02-24T05:02:55.473Z,101122.55
2023-02-24T05:05:27.260Z,101120.39
2023-02-24T05:08:06.504Z,101120.98
2023-02-24T05:10:41.056Z,101126.27
2023-02-24T05:13:15.449Z,101124.88
2023-02-24T05:15:45.825Z,101117.79
2023-02-24T05:18:16.568Z,101124.05
2023-02-24T05:21:06.779Z,101121.25
2023-02-24T05:23:38.656Z,101118.22
2023-02-24T05:26:26.115Z,101111.88
2023-02-24T05:28:55.769Z,101115.48
2023-02-24T05:31:28.351Z,101116.45
2023-02-24T05:33:58.730Z,101112.89
2023-02-24T05:36:29.086Z,101117.98
2023-02-24T05:39:06.810Z,101110.20
2023-02-24T05:41:35.940Z,101111.84
2023-02-24T05:44:09.444Z,101112.10
2023-02-24T05:46:43.947Z,101113.08
2023-02-24T05:49:22.799Z,101111.16
2023-02-24T05:51:54.198Z,101116.42
2023-02-24T05:54:32.810Z,101111.25
2023-02-24T05:57:05.750Z,101113.52
2023-02-24T05:59:33.667Z,101110.00
2023-02-24T06:02:13.167Z,101114.23
2023-02-24T06:04:53.337Z,101107.98
2023-02-24T06:07:24.179Z,101108.20
2023-02-24T06:09:58.285Z,101098.64
2023-02-24T06:12:39.271Z,101098.05
2023-02-24T06:15:10.297Z,101094.60
2023-02-24T06:17:39.003Z,101089.52
2023-02-24T06:20:13.413Z,101088.90
2023-02-24T06:22:41.909Z,101082.46
2023-02-24T06:25:13.521Z,101083.50
2023-02-24T06:27:42.580Z,101082.26
2023-02-24T06:30:10.812Z,101078.80
2023-02-24T06:32:38.624Z,101075.67
2023-02-24T06:35:05.830Z,101076.10
2023-02-24T06:37:35.311Z,101071.63
2023-02-24T06:43:10.478Z,101058.54
2023-02-24T06:45:37.343Z,101045.27
2023-02-24T06:48:04.174Z,101044.16
2023-02-24T06:50:32.293Z,101040.49
2023-02-24T06:53:00.154Z,101041.64
2023-02-24T06:55:27.921Z,101046.14
2023-02-24T06:58:04.366Z,101037.91
2023-02-24T07:00:38.255Z,101039.98
2023-02-24T07:03:15.415Z,101038.23
2023-02-24T07:05:53.608Z,101030.08
2023-02-24T07:08:22.581Z,101022.86
2023-02-24T07:10:55.362Z,101018.20
2023-02-24T07:13:24.365Z,101022.72
2023-02-24T07:16:06.676Z,101017.94
2023-02-24T07:18:35.744Z,101012.17
2023-02-24T07:21:11.012Z,101014.96
2023-02-24T07:23:40.356Z,101012.68
2023-02-24T07:26:13.424Z,101008.57
2023-02-24T07:28:43.109Z,101005.35
2023-02-24T07:31:13.391Z,101010.16
2023-02-24T07:33:44.648Z,101004.83
2023-02-24T07:36:15.547Z,100998.78
2023-02-24T07:38:44.224Z,100999.16
2023-02-24T07:41:14.760Z,100997.02
2023-02-24T07:43:43.489Z,100991.20
2023-02-24T07:46:13.643Z,100986.98
2023-02-24T07:48:42.307Z,100982.59
2023-02-24T07:51:11.679Z,100979.77
2023-02-24T07:53:41.488Z,100976.94
2023-02-24T07:56:17.170Z,100973.58
2023-02-24T07:58:51.183Z,100970.95
2023-02-24T08:01:27.354Z,100973.02
2023-02-24T08:03:59.502Z,100971.06
2023-02-24T08:06:37.986Z,100965.40
2023-02-24T08:09:17.967Z,100962.31
2023-02-24T08:11:48.594Z,100959.05
2023-02-24T08:14:17.123Z,100961.63
2023-02-24T08:16:47.630Z,100962.30
2023-02-24T08:19:20.436Z,100961.61
2023-02-24T08:21:51.529Z,100959.16
2023-02-24T08:24:25.218Z,100946.65
2023-02-24T08:27:08.795Z,100942.45
2023-02-24T08:29:57.520Z,100948.05
2023-02-24T08:32:33.240Z,100940.67
2023-02-24T08:35:17.959Z,100949.83
2023-02-24T08:37:49.501Z,100940.15
2023-02-24T08:40:31.670Z,100933.75
2023-02-24T08:43:15.365Z,100937.12
2023-02-24T08:45:45.304Z,100928.34
2023-02-24T08:48:25.988Z,100927.08
2023-02-24T08:50:58.092Z,100923.30
2023-02-24T08:53:30.887Z,100920.48
2023-02-24T08:56:11.854Z,100916.50
2023-02-24T08:58:47.815Z,100911.00
2023-02-24T09:01:23.371Z,100912.34
2023-02-24T09:03:58.094Z,100913.58
2023-02-24T09:06:43.384Z,100907.02
2023-02-24T09:09:18.154Z,100903.35
2023-02-24T09:11:55.263Z,100893.05
2023-02-24T09:14:29.305Z,100887.59
2023-02-24T09:17:01.545Z,100891.14
2023-02-24T09:19:47.438Z,100890.27
2023-02-24T09:22:32.629Z,100876.22
2023-02-24T09:25:25.267Z,100872.91
2023-02-24T09:27:55.358Z,100864.85
2023-02-24T09:30:35.198Z,100862.24
2023-02-24T09:33:20.626Z,100854.65
2023-02-24T09:35:51.712Z,100850.33
2023-02-24T09:38:36.248Z,100847.47
2023-02-24T09:41:29.459Z,100841.52
2023-02-24T09:44:18.603Z,100831.36
2023-02-24T09:46:59.636Z,100830.71
2023-02-24T09:49:46.099Z,100829.65
2023-02-24T09:52:16.942Z,100829.02
2023-02-24T09:55:06.242Z,100832.34
2023-02-24T09:58:27.017Z,100825.89
2023-02-24T10:01:20.387Z,100811.56
2023-02-24T10:04:18.638Z,100813.23
2023-02-24T10:06:57.223Z,100804.48
2023-02-24T10:09:33.976Z,100799.81
2023-02-24T10:12:31.794Z,100800.55
2023-02-24T10:15:31.747Z,100791.30
2023-02-24T10:18:26.703Z,100785.44
2023-02-24T10:21:06.011Z,100776.83
2023-02-24T10:23:56.062Z,100772.74
2023-02-24T10:26:32.327Z,100770.04
2023-02-24T10:29:21.952Z,100772.17
2023-02-24T10:31:57.282Z,100771.91
2023-02-24T10:34:31.344Z,100767.48
2023-02-24T10:37:05.885Z,100763.44
2023-02-24T10:39:33.223Z,100755.71
2023-02-24T10:42:15.458Z,100750.28
2023-02-24T10:45:09.757Z,100745.71
2023-02-24T10:47:43.896Z,100740.54
2023-02-24T10:50:23.180Z,100729.20
2023-02-24T10:52:56.668Z,100721.39
2023-02-24T10:55:44.698Z,100718.28
2023-02-24T10:58:28.103Z,100714.10
2023-02-24T11:01:11.506Z,100709.89
2023-02-24T11:04:12.052Z,100700.67
2023-02-24T11:06:52.089Z,100696.14
2023-02-24T11:09:28.679Z,100690.75
2023-02-24T11:12:30.903Z,100690.96
2023-02-24T11:15:22.712Z,100688.37
2023-02-24T11:17:59.916Z,100681.68
2023-02-24T11:20:49.378Z,100678.05
2023-02-24T11:23:27.419Z,100675.59
2023-02-24T11:26:10.375Z,100669.27
2023-02-24T11:29:17.064Z,100662.98
2023-02-24T11:32:18.398Z,100663.34
2023-02-24T11:34:58.986Z,100664.42
2023-02-24T11:37:43.160Z,100659.67
2023-02-24T11:40:25.426Z,100660.17
2023-02-24T11:43:23.933Z,100656.14
2023-02-24T11:46:11.682Z,100654.40
2023-02-24T11:48:46.725Z,100651.20
2023-02-24T11:51:23.053Z,100647.86
2023-02-24T11:54:22.858Z,100650.35
2023-02-24T11:56:55.283Z,100644.66
2023-02-24T11:59:46.464Z,100638.36
2023-02-24T12:02:13.895Z,100635.13
2023-02-24T12:05:00.190Z,100630.31
2023-02-24T12:07:32.607Z,100631.05
2023-02-24T12:10:16.582Z,100626.73
2023-02-24T12:13:07.040Z,100621.35
2023-02-24T12:15:52.643Z,100629.41
2023-02-24T12:18:33.415Z,100626.00
2023-02-24T12:21:07.454Z,100619.63
2023-02-24T12:23:38.819Z,100615.84
2023-02-24T12:26:20.018Z,100606.42
2023-02-24T12:29:20.665Z,100606.84
2023-02-24T12:32:07.255Z,100601.02
2023-02-24T12:34:43.018Z,100595.88
2023-02-24T12:37:34.422Z,100589.73
2023-02-24T12:40:01.455Z,100582.02
2023-02-24T12:42:37.672Z,100577.58
2023-02-24T12:45:11.745Z,100576.59
2023-02-24T12:47:57.520Z,100576.61
2023-02-24T12:50:46.180Z,100571.83
2023-02-24T12:53:22.331Z,100569.60
2023-02-24T12:55:52.944Z,100559.53
2023-02-24T12:58:33.555Z,100552.40
2023-02-24T13:01:13.726Z,100556.80
2023-02-24T13:04:14.878Z,100552.67
2023-02-24T13:06:58.046Z,100550.00
2023-02-24T13:09:31.085Z,100543.80
2023-02-24T13:12:21.315Z,100541.13
2023-02-24T13:14:49.141Z,100546.23
2023-02-24T13:17:21.875Z,100540.92
2023-02-24T13:19:51.957Z,100536.95
2023-02-24T13:22:26.372Z,100537.38
2023-02-24T13:24:53.674Z,100534.14
2023-02-24T13:27:28.420Z,100529.20
2023-02-24T13:30:19.483Z,100525.45
2023-02-24T13:32:59.077Z,100521.92
2023-02-24T13:35:26.104Z,100519.83
2023-02-24T13:37:53.938Z,100515.59
2023-02-24T13:40:26.763Z,100512.85
2023-02-24T13:42:56.793Z,100511.79
2023-02-24T13:45:36.867Z,100511.98
2023-02-24T13:48:12.799Z,100510.86
2023-02-24T13:50:51.762Z,100506.76
2023-02-24T13:53:41.548Z,100498.42
2023-02-24T13:56:29.805Z,100495.35
2023-02-24T13:59:24.980Z,100498.61
2023-02-24T14:01:58.245Z,100492.52
2023-02-24T14:04:30.306Z,100496.20
2023-02-24T14:07:03.371Z,100493.98
2023-02-24T14:09:36.848Z,100494.39
2023-02-24T14:12:18.828Z,100489.00
2023-02-24T14:14:47.080Z,100484.70
2023-02-24T14:17:28.212Z,100484.45
2023-02-24T14:20:07.238Z,100486.48
2023-02-24T14:22:41.969Z,100484.65
2023-02-24T14:25:11.015Z,100482.59
2023-02-24T14:27:43.991Z,100480.36
2023-02-24T14:30:40.816Z,100478.39
2023-02-24T14:33:29.955Z,100469.16
2023-02-24T14:36:14.477Z,100462.01
2023-02-24T14:38:42.969Z,100458.84
2023-02-24T14:41:22.369Z,100451.20
2023-02-24T14:43:51.004Z,100448.29
2023-02-24T14:46:18.714Z,100439.08
2023-02-24T14:48:51.152Z,100433.43
2023-02-24T14:51:36.488Z,100434.95
2023-02-24T14:54:15.212Z,100437.51
2023-02-24T14:56:42.275Z,100437.83
2023-02-24T14:59:31.113Z,100439.00
2023-02-24T15:01:59.288Z,100435.98
2023-02-24T15:04:26.516Z,100440.83
2023-02-24T15:06:54.158Z,100436.05
2023-02-24T15:09:25.199Z,100435.35
2023-02-24T15:11:55.518Z,100432.97
2023-02-24T15:14:32.077Z,100429.25
2023-02-24T15:17:03.246Z,100429.86
2023-02-24T15:19:43.573Z,100419.80
2023-02-24T15:22:47.667Z,100417.99
2023-02-24T15:25:42.005Z,100416.95
2023-02-24T15:28:32.193Z,100415.80
2023-02-24T15:31:02.680Z,100413.65
2023-02-24T15:33:43.655Z,100414.59
2023-02-24T15:36:23.566Z,100408.20
2023-02-24T15:38:59.440Z,100408.81
2023-02-24T15:41:38.656Z,100401.67
2023-02-24T15:44:23.127Z,100405.08
2023-02-24T15:46:50.204Z,100403.05
2023-02-24T15:49:17.321Z,100400.11
2023-02-24T15:51:48.303Z,100396.56
2023-02-24T15:54:41.939Z,100393.81
2023-02-24T15:57:11.806Z,100394.67
2023-02-24T15:59:40.028Z,100397.85
2023-02-24T16:02:34.615Z,100400.66
2023-02-24T16:05:01.565Z,100400.42
2023-02-24T16:07:31.813Z,100400.82
2023-02-24T16:10:00.550Z,100396.65
2023-02-24T16:12:48.956Z,100400.92
2023-02-24T16:15:26.533Z,100395.27
2023-02-24T16:17:54.872Z,100392.55
2023-02-24T16:20:27.103Z,100392.10
2023-02-24T16:22:56.582Z,100388.98
2023-02-24T16:25:25.880Z,100382.52
2023-02-24T16:27:56.713Z,100380.04
2023-02-24T16:30:29.865Z,100379.43
2023-02-24T16:33:00.003Z,100381.65
2023-02-24T16:35:28.000Z,100384.18
2023-02-24T16:37:55.032Z,100390.55
2023-02-24T16:40:30.272Z,100387.83
2023-02-24T16:42:57.921Z,100384.92
2023-02-24T16:45:29.125Z,100383.77
2023-02-24T16:48:02.527Z,100380.51
2023-02-24T16:50:39.681Z,100382.30
2023-02-24T16:53:08.895Z,100376.93
2023-02-24T16:55:37.522Z,100379.92
2023-02-24T16:58:04.399Z,100375.31
2023-02-24T17:00:32.190Z,100373.91
2023-02-24T17:02:59.397Z,100375.78
2023-02-24T17:05:27.450Z,100372.23
2023-02-24T17:07:56.786Z,100369.61
2023-02-24T17:10:28.131Z,100369.25
2023-02-24T17:12:55.381Z,100365.56
2023-02-24T17:15:24.274Z,100367.17
2023-02-24T17:17:52.019Z,100365.94
2023-02-24T17:20:20.378Z,100364.68
2023-02-24T17:22:51.664Z,100363.91
2023-02-24T17:25:25.071Z,100358.23
2023-02-24T17:27:54.019Z,100357.09
2023-02-24T17:30:27.866Z,100355.73
2023-02-24T17:32:55.905Z,100354.58
2023-02-24T17:35:24.035Z,100354.41
2023-02-24T17:37:51.070Z,100351.98
2023-02-24T17:40:18.199Z,100346.57
2023-02-24T17:42:45.625Z,100345.00
2023-02-24T17:45:13.846Z,100339.41
2023-02-24T17:47:41.946Z,100337.84
2023-02-24T17:50:11.986Z,100334.33
2023-02-24T17:52:40.328Z,100340.86
2023-02-24T17:55:08.141Z,100333.80
2023-02-24T17:57:39.233Z,100331.31
2023-02-24T18:00:07.886Z,100331.80
2023-02-24T18:02:41.201Z,100326.36
2023-02-24T18:05:09.568Z,100321.54
2023-02-24T18:07:38.107Z,100318.04
2023-02-24T18:10:05.836Z,100321.14
2023-02-24T18:12:33.288Z,100323.89
2023-02-24T18:15:08.358Z,100320.89
2023-02-24T18:17:38.476Z,100325.15
2023-02-24T18:20:11.873Z,100324.35
2023-02-24T18:22:39.289Z,100323.66
2023-02-24T18:25:07.253Z,100321.83
2023-02-24T18:27:34.504Z,100320.46
2023-02-24T18:30:01.725Z,100318.57
2023-02-24T18:32:28.971Z,100320.02
2023-02-24T18:34:56.225Z,100316.30
2023-02-24T18:37:23.226Z,100313.25
2023-02-24T18:39:52.391Z,100307.54
2023-02-24T18:42:19.498Z,100307.36
2023-02-24T18:44:47.569Z,100302.23
2023-02-24T18:47:14.569Z,100299.10
2023-02-24T18:49:42.867Z,100297.91
2023-02-24T18:52:11.252Z,100293.16
2023-02-24T18:54:39.629Z,100290.36
2023-02-24T18:57:06.931Z,100286.52
2023-02-24T18:59:34.331Z,100286.11
2023-02-24T19:02:01.567Z,100282.14
2023-02-24T19:04:35.027Z,100279.19
2023-02-24T19:07:02.267Z,100275.89
2023-02-24T19:09:29.451Z,100272.08
2023-02-24T19:11:57.373Z,100269.60
2023-02-24T19:14:24.482Z,100265.92
2023-02-24T19:16:51.942Z,100259.92
2023-02-24T19:19:22.323Z,100260.31
2023-02-24T19:21:49.665Z,100257.21
2023-02-24T19:24:17.210Z,100256.02
2023-02-24T19:26:45.322Z,100253.60
2023-02-24T19:29:16.641Z,100255.85
2023-02-24T19:31:45.006Z,100259.46
2023-02-24T19:34:13.628Z,100252.95
2023-02-24T19:36:40.937Z,100244.83
2023-02-24T19:39:14.240Z,100240.90
2023-02-24T19:41:41.281Z,100230.53
2023-02-24T19:44:11.964Z,100227.59
2023-02-24T19:46:39.398Z,100224.98
2023-02-24T19:49:06.546Z,100222.22
2023-02-24T19:51:35.023Z,100218.08
2023-02-24T19:54:05.294Z,100212.84
2023-02-24T19:56:35.120Z,100206.00
2023-02-24T19:59:05.204Z,100205.89
2023-02-24T20:01:33.122Z,100196.01
2023-02-24T20:04:02.168Z,100193.81
2023-02-24T20:06:35.075Z,100191.37
2023-02-24T20:09:09.488Z,100186.33
2023-02-24T20:11:38.662Z,100183.34
2023-02-24T20:14:08.984Z,100181.65
2023-02-24T20:16:40.026Z,100181.86
2023-02-24T20:19:13.959Z,100176.33
2023-02-24T20:21:41.695Z,100173.29
2023-02-24T20:24:13.985Z,100165.49
2023-02-24T20:26:46.494Z,100166.77
2023-02-24T20:29:16.044Z,100163.24
2023-02-24T20:31:45.996Z,100166.70
2023-02-24T20:34:16.155Z,100165.05
2023-02-24T20:36:45.188Z,100165.86
2023-02-24T20:39:12.476Z,100161.93
2023-02-24T20:41:39.971Z,100160.52
2023-02-24T20:44:08.122Z,100158.82
2023-02-24T20:46:36.448Z,100156.05
2023-02-24T20:49:07.310Z,100155.36
2023-02-24T20:51:39.281Z,100149.60
2023-02-24T20:54:08.104Z,100151.57
2023-02-24T20:56:38.575Z,100143.79
2023-02-24T20:59:12.092Z,100143.32
2023-02-24T21:01:39.712Z,100142.64
2023-02-24T21:04:08.291Z,100135.98
2023-02-24T21:06:36.605Z,100132.26
2023-02-24T21:09:04.051Z,100127.40
2023-02-24T21:11:32.139Z,100121.89
2023-02-24T21:13:59.815Z,100120.89
2023-02-24T21:16:28.491Z,100118.67
2023-02-24T21:18:58.205Z,100114.35
2023-02-24T21:21:26.657Z,100112.51
2023-02-24T21:23:56.344Z,100107.48
2023-02-24T21:26:26.226Z,100101.54
2023-02-24T21:28:57.443Z,100101.70
2023-02-24T21:31:26.384Z,100100.08
2023-02-24T21:33:55.198Z,100089.19
2023-02-24T21:36:25.362Z,100089.65
2023-02-24T21:38:54.179Z,100083.11
2023-02-24T21:41:21.587Z,100082.24
2023-02-24T21:43:54.170Z,100076.34
2023-02-24T21:46:22.367Z,100076.76
2023-02-24T21:48:54.740Z,100073.45
2023-02-24T21:51:24.273Z,100073.17
2023-02-24T21:53:56.309Z,100075.55
2023-02-24T21:56:26.356Z,100072.70
2023-02-24T21:58:57.509Z,100074.42
2023-02-24T22:01:33.803Z,100076.46
2023-02-24T22:04:03.098Z,100078.56
2023-02-24T22:06:33.478Z,100073.41
2023-02-24T22:09:03.307Z,100069.38
2023-02-24T22:11:34.688Z,100067.25
2023-02-24T22:14:01.930Z,100062.38
2023-02-24T22:16:29.398Z,100062.70
2023-02-24T22:18:56.494Z,100058.72
2023-02-24T22:21:26.305Z,100054.14
2023-02-24T22:23:56.068Z,100050.64
2023-02-24T22:26:24.931Z,100049.36
2023-02-24T22:28:54.204Z,100046.09
2023-02-24T22:31:23.885Z,100047.41
2023-02-24T22:33:51.391Z,100041.27
2023-02-24T22:36:26.447Z,100038.13
2023-02-24T22:38:56.836Z,100036.92
2023-02-24T22:41:27.483Z,100029.30
2023-02-24T22:43:54.856Z,100029.27
2023-02-24T22:46:29.407Z,100020.13
2023-02-24T22:48:57.937Z,100017.72
2023-02-24T22:51:26.408Z,100016.87
2023-02-24T22:53:55.071Z,100014.73
2023-02-24T22:56:26.080Z,100002.94
2023-02-24T22:58:53.154Z,99999.28
2023-02-24T23:01:25.145Z,99998.96
2023-02-24T23:03:52.794Z,99995.72
2023-02-24T23:06:22.867Z,99996.67
2023-02-24T23:08:51.506Z,99988.67
2023-02-24T23:11:31.080Z,99986.84
2023-02-24T23:14:05.121Z,99986.98
2023-02-24T23:16:34.080Z,99986.77
2023-02-24T23:19:06.949Z,99981.03
2023-02-24T23:21:38.081Z,99982.05
2023-02-24T23:24:12.022Z,99976.82
2023-02-24T23:26:45.282Z,99971.14
2023-02-24T23:29:15.482Z,99967.44
2023-02-24T23:31:43.579Z,99962.70
2023-02-24T23:34:11.412Z,99956.91
2023-02-24T23:36:42.995Z,99950.95
2023-02-24T23:39:14.617Z,99952.66
2023-02-24T23:41:41.596Z,99945.23
2023-02-24T23:44:08.809Z,99944.29
2023-02-24T23:46:36.545Z,99942.81
2023-02-24T23:49:04.526Z,99938.42
2023-02-24T23:51:47.077Z,99936.40
2023-02-24T23:54:17.301Z,99933.52
2023-02-24T23:56:44.684Z,99926.36
2023-02-24T23:59:15.413Z,99918.00
